Falcon Heights, Minnesota
Current Conditions -  °F | °C
As of 8:53 AM on Thursday 23 Oct 2014 (Local Time) from KSTP Reporting Station
Overcast Overcast  
Wind Chill: 51°   Ceiling: 800
Heat Index: 51°   Visibility: 7mi
Dew Point: 50°   Wind: 5mph
Humidity: 96%   Direction: 150°SSE
Pressure: 30.01"   Gusts: NA
Location:  45.0123°N, 93.1559°W
Report Text: KSTP 231353Z 15004KT 7SM OVC008 11/10 A3001 RMK AO2 SLP162 T01060100
Loading
Personal Weather Stations






























Interactive Weather Map
Tropical Storm Tracking
New forecast layout! Learn more

10-Day Weather Forecast

Advertisements
Track Severe Weather on mobile